createdAt,value
2018-03-31T00:02:20.963Z,7.70
2018-03-31T00:04:47.964Z,7.70
2018-03-31T00:07:16.461Z,7.60
2018-03-31T00:09:43.464Z,7.70
2018-03-31T00:12:10.469Z,7.70
2018-03-31T00:14:38.330Z,7.90
2018-03-31T00:17:05.357Z,7.80
2018-03-31T00:19:32.420Z,7.90
2018-03-31T00:22:00.180Z,7.90
2018-03-31T00:24:27.962Z,7.90
2018-03-31T00:26:55.713Z,7.80
2018-03-31T00:29:24.130Z,7.90
2018-03-31T00:31:52.612Z,7.90
2018-03-31T00:34:20.429Z,7.90
2018-03-31T00:36:47.410Z,7.90
2018-03-31T00:39:14.410Z,8.00
2018-03-31T00:41:43.014Z,8.00
2018-03-31T00:44:10.760Z,8.00
2018-03-31T00:46:37.761Z,8.00
2018-03-31T00:49:04.742Z,8.00
2018-03-31T00:51:31.728Z,8.00
2018-03-31T00:53:58.763Z,8.00
2018-03-31T00:56:26.562Z,8.00
2018-03-31T00:58:53.671Z,7.90
2018-03-31T01:01:21.547Z,7.90
2018-03-31T01:03:49.397Z,7.90
2018-03-31T01:06:16.453Z,7.90
2018-03-31T01:08:44.225Z,7.90
2018-03-31T01:11:11.973Z,7.90
2018-03-31T01:13:39.750Z,7.90
2018-03-31T01:16:07.517Z,7.90
2018-03-31T01:18:35.265Z,7.90
2018-03-31T01:21:03.017Z,7.90
2018-03-31T01:23:30.085Z,7.80
2018-03-31T01:25:58.055Z,7.80
2018-03-31T01:28:25.917Z,7.80
2018-03-31T01:30:53.714Z,7.80
2018-03-31T01:33:20.697Z,7.70
2018-03-31T01:35:47.685Z,7.50
2018-03-31T01:38:15.456Z,7.50
2018-03-31T01:40:42.445Z,7.50
2018-03-31T01:43:09.433Z,7.50
2018-03-31T01:45:37.296Z,7.40
2018-03-31T01:48:05.045Z,7.40
2018-03-31T01:50:32.030Z,7.40
2018-03-31T01:52:59.058Z,7.40
2018-03-31T01:55:26.805Z,7.40
2018-03-31T01:57:54.557Z,7.40
2018-03-31T02:00:21.561Z,7.40
2018-03-31T02:02:48.555Z,7.40
2018-03-31T02:05:15.545Z,7.40
2018-03-31T02:07:42.549Z,7.30
2018-03-31T02:10:09.606Z,7.30
2018-03-31T02:12:37.373Z,7.20
2018-03-31T02:15:05.238Z,7.30
2018-03-31T02:17:32.994Z,7.30
2018-03-31T02:19:59.977Z,7.30
2018-03-31T02:22:26.995Z,7.20
2018-03-31T02:24:54.741Z,7.20
2018-03-31T02:27:23.230Z,7.10
2018-03-31T02:29:51.004Z,7.20
2018-03-31T02:32:18.765Z,7.20
2018-03-31T02:34:46.515Z,7.20
2018-03-31T02:37:13.527Z,7.20
2018-03-31T02:39:40.522Z,7.20
2018-03-31T02:42:08.277Z,7.20
2018-03-31T02:44:36.049Z,7.20
2018-03-31T02:47:03.805Z,7.20
2018-03-31T02:49:31.556Z,7.20
2018-03-31T02:51:58.624Z,7.20
2018-03-31T02:54:26.381Z,7.30
2018-03-31T02:56:54.132Z,7.30
2018-03-31T02:59:21.136Z,7.30
2018-03-31T03:01:48.121Z,7.30
2018-03-31T03:04:15.185Z,7.30
2018-03-31T03:06:42.953Z,7.30
2018-03-31T03:09:10.701Z,7.30
2018-03-31T03:11:37.765Z,7.30
2018-03-31T03:14:05.533Z,7.20
2018-03-31T03:16:33.282Z,7.20
2018-03-31T03:19:00.270Z,7.20
2018-03-31T03:21:27.273Z,7.10
2018-03-31T03:23:54.329Z,7.10
2018-03-31T03:26:22.082Z,7.00
2018-03-31T03:28:49.146Z,7.00
2018-03-31T03:31:16.906Z,7.00
2018-03-31T03:33:44.673Z,6.90
2018-03-31T03:36:12.444Z,7.00
2018-03-31T03:38:40.193Z,7.00
2018-03-31T03:41:07.941Z,7.00
2018-03-31T03:43:34.950Z,7.00
2018-03-31T03:46:01.934Z,7.00
2018-03-31T03:48:28.992Z,7.00
2018-03-31T03:50:56.757Z,7.00
2018-03-31T03:53:24.505Z,7.00
2018-03-31T03:55:51.568Z,7.00
2018-03-31T03:58:19.337Z,6.90
2018-03-31T04:00:47.094Z,6.80
2018-03-31T04:03:14.840Z,6.80
2018-03-31T04:05:41.910Z,6.80
2018-03-31T04:08:09.681Z,6.90
2018-03-31T04:10:37.429Z,6.90
2018-03-31T04:13:04.481Z,6.90
2018-03-31T04:15:32.234Z,6.90
2018-03-31T04:17:59.225Z,6.90
2018-03-31T04:20:26.230Z,6.90
2018-03-31T04:22:53.212Z,6.90
2018-03-31T04:25:20.198Z,7.00
2018-03-31T04:27:47.210Z,7.00
2018-03-31T04:30:14.198Z,7.00
2018-03-31T04:32:41.186Z,7.00
2018-03-31T04:35:08.213Z,7.10
2018-03-31T04:37:35.965Z,7.00
2018-03-31T04:40:02.949Z,7.00
2018-03-31T04:42:29.969Z,7.00
2018-03-31T04:44:57.734Z,7.00
2018-03-31T04:47:25.497Z,7.00
2018-03-31T04:49:53.274Z,7.00
2018-03-31T04:52:21.026Z,7.00
2018-03-31T04:54:48.774Z,6.90
2018-03-31T04:57:15.778Z,6.90
2018-03-31T04:59:42.761Z,6.80
2018-03-31T05:02:09.750Z,6.80
2018-03-31T05:04:36.753Z,6.80
2018-03-31T05:07:03.739Z,6.80
2018-03-31T05:09:30.729Z,6.70
2018-03-31T05:11:57.750Z,6.70
2018-03-31T05:14:24.733Z,6.70
2018-03-31T05:16:51.721Z,6.70
2018-03-31T05:19:18.728Z,6.70
2018-03-31T05:21:45.794Z,6.60
2018-03-31T05:24:13.546Z,6.70
2018-03-31T05:26:40.854Z,6.60
2018-03-31T05:29:07.857Z,6.70
2018-03-31T05:31:35.659Z,6.70
2018-03-31T05:34:02.918Z,6.70
2018-03-31T05:36:30.173Z,6.70
2018-03-31T05:38:57.175Z,6.70
2018-03-31T05:41:24.966Z,6.80
2018-03-31T05:43:51.957Z,6.70
2018-03-31T05:46:20.461Z,6.80
2018-03-31T05:48:48.238Z,6.90
2018-03-31T05:51:17.190Z,6.80
2018-03-31T05:53:44.173Z,6.80
2018-03-31T05:56:11.946Z,6.90
2018-03-31T05:58:38.949Z,6.90
2018-03-31T06:01:06.273Z,6.90
2018-03-31T06:03:33.329Z,6.90
2018-03-31T06:06:00.282Z,6.70
2018-03-31T06:08:27.266Z,6.70
2018-03-31T06:10:55.034Z,6.90
2018-03-31T06:13:22.781Z,7.00
2018-03-31T06:15:49.764Z,7.00
2018-03-31T06:18:16.941Z,7.10
2018-03-31T06:20:44.178Z,7.20
2018-03-31T06:23:11.189Z,7.40
2018-03-31T06:25:38.962Z,7.70
2018-03-31T06:28:05.953Z,7.60
2018-03-31T06:30:32.999Z,7.70
2018-03-31T06:32:59.957Z,7.70
2018-03-31T06:35:26.946Z,7.70
2018-03-31T06:37:54.138Z,7.80
2018-03-31T06:40:21.265Z,7.80
2018-03-31T06:42:48.259Z,7.80
2018-03-31T06:45:15.253Z,7.80
2018-03-31T06:47:42.257Z,7.80
2018-03-31T06:50:09.236Z,7.70
2018-03-31T06:52:36.221Z,7.80
2018-03-31T06:55:04.198Z,7.70
2018-03-31T06:57:31.986Z,7.50
2018-03-31T06:59:59.769Z,7.50
2018-03-31T07:02:26.819Z,7.50
2018-03-31T07:04:53.853Z,7.60
2018-03-31T07:07:20.850Z,7.60
2018-03-31T07:09:48.116Z,7.80
2018-03-31T07:12:15.193Z,8.00
2018-03-31T07:14:43.408Z,8.40
2018-03-31T07:17:10.518Z,8.40
2018-03-31T07:19:38.269Z,8.80
2018-03-31T07:22:06.022Z,9.30
2018-03-31T07:24:34.546Z,10.10
2018-03-31T07:27:01.534Z,10.00
2018-03-31T07:29:28.537Z,10.40
2018-03-31T07:31:55.565Z,10.30
2018-03-31T07:34:23.318Z,10.20
2018-03-31T07:36:51.089Z,10.30
2018-03-31T07:39:18.861Z,10.80
2018-03-31T07:41:46.870Z,11.00
2018-03-31T07:44:13.853Z,10.60
2018-03-31T07:46:40.918Z,10.70
2018-03-31T07:49:08.678Z,10.40
2018-03-31T07:51:35.663Z,10.40
2018-03-31T07:54:02.680Z,10.00
2018-03-31T07:56:30.427Z,9.60
2018-03-31T07:58:57.409Z,9.60
2018-03-31T08:01:24.409Z,9.50
2018-03-31T08:03:51.474Z,9.40
2018-03-31T08:06:19.226Z,9.50
2018-03-31T08:08:47.002Z,9.60
2018-03-31T08:11:14.762Z,9.70
2018-03-31T08:13:42.509Z,9.50
2018-03-31T08:16:09.514Z,9.50
2018-03-31T08:18:36.497Z,9.50
2018-03-31T08:21:03.573Z,9.60
2018-03-31T08:23:31.484Z,9.40
2018-03-31T08:25:58.915Z,9.50
2018-03-31T08:28:25.901Z,9.40
2018-03-31T08:30:52.905Z,9.30
2018-03-31T08:33:19.892Z,9.30
2018-03-31T08:35:46.881Z,9.40
2018-03-31T08:38:14.653Z,9.50
2018-03-31T08:40:41.633Z,9.50
2018-03-31T08:43:08.615Z,9.50
2018-03-31T08:45:35.617Z,9.40
2018-03-31T08:48:02.598Z,9.50
2018-03-31T08:50:29.646Z,9.50
2018-03-31T08:52:56.646Z,9.60
2018-03-31T08:55:23.626Z,9.60
2018-03-31T08:57:50.606Z,9.60
2018-03-31T09:00:18.373Z,9.90
2018-03-31T09:02:46.122Z,10.00
2018-03-31T09:05:13.873Z,10.00
2018-03-31T09:07:40.889Z,10.00
2018-03-31T09:10:07.873Z,10.30
2018-03-31T09:12:35.997Z,10.60
2018-03-31T09:15:03.066Z,10.70
2018-03-31T09:17:30.301Z,10.90
2018-03-31T09:19:57.293Z,10.90
2018-03-31T09:22:24.326Z,11.10
2018-03-31T09:24:51.302Z,11.00
2018-03-31T09:27:19.051Z,11.10
2018-03-31T09:29:46.057Z,11.00
2018-03-31T09:32:13.049Z,11.10
2018-03-31T09:34:40.797Z,11.10
2018-03-31T09:37:09.306Z,11.30
2018-03-31T09:39:37.054Z,11.50
2018-03-31T09:42:04.801Z,11.50
2018-03-31T09:44:31.809Z,11.40
2018-03-31T09:46:58.794Z,11.10
2018-03-31T09:49:25.781Z,11.00
2018-03-31T09:51:52.787Z,11.20
2018-03-31T09:54:19.774Z,11.50
2018-03-31T09:56:47.053Z,11.70
2018-03-31T09:59:14.149Z,11.70
2018-03-31T10:01:41.897Z,11.80
2018-03-31T10:04:09.646Z,12.00
2018-03-31T10:06:36.649Z,12.00
2018-03-31T10:09:03.630Z,12.10
2018-03-31T10:11:30.713Z,12.40
2018-03-31T10:13:58.482Z,13.10
2018-03-31T10:16:26.233Z,13.40
2018-03-31T10:18:53.222Z,13.30
2018-03-31T10:21:20.227Z,13.60
2018-03-31T10:23:48.005Z,14.10
2018-03-31T10:26:15.753Z,14.20
2018-03-31T10:28:42.809Z,14.20
2018-03-31T10:31:10.561Z,14.00
2018-03-31T10:33:37.542Z,14.00
2018-03-31T10:36:04.549Z,14.20
2018-03-31T10:38:31.613Z,14.30
2018-03-31T10:40:59.369Z,13.90
2018-03-31T10:43:27.142Z,13.60
2018-03-31T10:45:54.902Z,13.80
2018-03-31T10:48:22.649Z,14.10
2018-03-31T10:50:49.654Z,14.10
2018-03-31T14:51:13.042Z,12.80
2018-03-31T14:53:40.049Z,12.70
2018-03-31T14:56:07.820Z,12.70
2018-03-31T14:58:35.570Z,12.50
2018-03-31T15:01:03.581Z,12.50
2018-03-31T15:03:30.596Z,12.50
2018-03-31T15:05:58.341Z,12.40
2018-03-31T15:08:25.325Z,12.40
2018-03-31T15:10:52.333Z,12.30
2018-03-31T15:13:20.090Z,12.30
2018-03-31T15:15:47.074Z,12.30
2018-03-31T15:18:14.077Z,12.50
2018-03-31T15:20:41.066Z,12.70
2018-03-31T15:23:08.053Z,12.80
2018-03-31T15:25:35.058Z,12.90
2018-03-31T15:28:02.046Z,12.90
2018-03-31T15:30:29.033Z,12.80
2018-03-31T15:32:56.897Z,12.90
2018-03-31T15:35:24.757Z,12.90
2018-03-31T15:37:52.505Z,12.90
2018-03-31T15:40:19.510Z,12.90
2018-03-31T15:42:46.494Z,12.90
2018-03-31T15:45:13.559Z,13.00
2018-03-31T15:47:41.469Z,13.00
2018-03-31T15:50:08.458Z,13.10
2018-03-31T15:52:35.450Z,13.00
2018-03-31T15:55:02.602Z,13.10
2018-03-31T15:57:29.861Z,13.00
2018-03-31T15:59:56.841Z,12.90
2018-03-31T16:02:23.910Z,12.80
2018-03-31T16:04:51.659Z,12.60
2018-03-31T16:07:18.645Z,12.60
2018-03-31T16:09:45.680Z,12.70
2018-03-31T16:12:13.540Z,12.70
2018-03-31T16:14:41.293Z,12.90
2018-03-31T16:17:09.068Z,12.90
2018-03-31T16:19:36.821Z,13.00
2018-03-31T16:22:04.574Z,12.90
2018-03-31T16:24:31.578Z,12.90
2018-03-31T16:26:58.566Z,12.80
2018-03-31T16:29:25.625Z,12.90
2018-03-31T16:31:53.393Z,12.80
2018-03-31T16:34:21.149Z,12.80
2018-03-31T16:36:48.897Z,12.70
2018-03-31T16:39:15.905Z,12.70
2018-03-31T16:41:42.889Z,12.70
2018-03-31T16:44:10.266Z,12.60
2018-03-31T16:46:38.034Z,12.20
2018-03-31T16:49:05.785Z,12.20
2018-03-31T16:51:33.058Z,12.20
2018-03-31T16:54:00.063Z,12.10
2018-03-31T16:56:27.382Z,12.00
2018-03-31T16:58:54.362Z,12.00
2018-03-31T17:01:21.366Z,12.00
2018-03-31T17:03:48.350Z,11.90
2018-03-31T17:06:15.333Z,11.80
2018-03-31T17:08:43.106Z,11.70
2018-03-31T17:28:31.037Z,11.10
2018-03-31T17:30:59.046Z,10.90
2018-03-31T17:33:26.029Z,10.80
2018-03-31T17:35:53.345Z,10.70
2018-03-31T17:38:20.350Z,10.60
2018-03-31T17:40:48.109Z,10.30
2018-03-31T17:43:15.862Z,10.10
2018-03-31T17:45:42.919Z,10.10
2018-03-31T17:48:10.941Z,9.90
2018-03-31T17:50:37.925Z,9.90
2018-03-31T17:53:05.693Z,9.60
2018-03-31T17:55:33.466Z,9.50
2018-03-31T17:58:01.218Z,9.40
2018-03-31T18:00:28.222Z,9.40
2018-03-31T18:02:55.205Z,9.30
2018-03-31T18:05:22.958Z,9.10
2018-03-31T18:07:49.958Z,9.10
2018-03-31T18:10:18.081Z,9.00
2018-03-31T18:12:45.825Z,8.90
2018-03-31T18:15:12.834Z,8.90
2018-03-31T18:17:39.837Z,8.80
2018-03-31T18:20:06.821Z,8.70
2018-03-31T18:22:33.849Z,8.70
2018-03-31T18:25:01.603Z,8.50
2018-03-31T18:27:29.353Z,8.40
2018-03-31T18:29:56.353Z,8.40
2018-03-31T18:32:23.337Z,8.40
2018-03-31T18:34:50.317Z,8.30
2018-03-31T18:37:18.094Z,8.10
2018-03-31T18:39:45.086Z,8.20
2018-03-31T18:42:12.165Z,8.00
2018-03-31T18:44:39.956Z,7.80
2018-03-31T18:47:06.982Z,7.80
2018-03-31T18:49:34.733Z,7.60
2018-03-31T18:52:01.741Z,7.60
2018-03-31T18:54:28.729Z,7.50
2018-03-31T18:56:56.481Z,7.40
2018-03-31T18:59:23.489Z,7.40
2018-03-31T19:01:50.483Z,7.20
2018-03-31T19:04:18.256Z,7.00
2018-03-31T19:06:46.026Z,6.90
2018-03-31T19:09:13.778Z,6.90
2018-03-31T19:11:41.550Z,6.70
2018-03-31T19:14:09.317Z,6.60
2018-03-31T19:16:42.856Z,6.50
2018-03-31T19:19:09.877Z,6.50
2018-03-31T19:21:36.860Z,6.40
2018-03-31T19:24:03.953Z,6.40
2018-03-31T19:26:31.725Z,6.00
2018-03-31T19:28:59.476Z,5.90
2018-03-31T19:31:27.229Z,5.80
2018-03-31T19:33:55.003Z,5.70
2018-03-31T19:36:22.765Z,5.70
2018-03-31T19:38:50.517Z,5.70
2018-03-31T19:41:17.521Z,5.70
2018-03-31T19:43:44.508Z,5.60
2018-03-31T19:46:11.576Z,5.60
2018-03-31T19:48:39.346Z,5.70
2018-03-31T19:51:07.097Z,5.70
2018-03-31T19:53:34.861Z,5.40
2018-03-31T19:56:02.632Z,5.30
2018-03-31T19:58:30.386Z,5.30
2018-03-31T20:00:58.484Z,5.10
2018-03-31T20:03:26.345Z,5.10
2018-03-31T20:05:53.338Z,5.10
2018-03-31T20:08:20.418Z,5.00
2018-03-31T20:10:48.186Z,4.90
2018-03-31T20:13:15.953Z,4.80
2018-03-31T20:15:43.813Z,4.70
2018-03-31T20:18:11.585Z,4.40
2018-03-31T20:20:39.341Z,4.40
2018-03-31T20:23:07.146Z,4.40
2018-03-31T20:25:34.877Z,4.40
2018-03-31T20:28:01.877Z,4.30
2018-03-31T20:30:29.013Z,4.40
2018-03-31T20:32:56.018Z,4.40
2018-03-31T20:35:23.769Z,4.40
2018-03-31T20:37:51.536Z,4.40
2018-03-31T20:40:19.406Z,4.50
2018-03-31T20:42:47.157Z,4.40
2018-03-31T20:45:14.213Z,4.40
2018-03-31T20:47:41.984Z,4.30
2018-03-31T20:50:09.739Z,4.30
2018-03-31T20:52:37.493Z,4.40
2018-03-31T20:55:04.497Z,4.30
2018-03-31T20:57:31.481Z,4.30
2018-03-31T20:59:58.467Z,4.20
2018-03-31T21:02:25.473Z,4.10
2018-03-31T21:04:52.457Z,4.10
2018-03-31T21:07:19.519Z,4.10
2018-03-31T21:09:46.546Z,4.10
2018-03-31T21:12:13.538Z,4.10
2018-03-31T21:14:40.617Z,4.00
2018-03-31T21:17:08.491Z,4.00
2018-03-31T21:19:36.238Z,4.00
2018-03-31T21:22:03.218Z,4.00
2018-03-31T21:24:30.221Z,3.90
2018-03-31T21:26:57.289Z,3.90
2018-03-31T21:29:25.038Z,3.90
2018-03-31T21:31:52.820Z,4.00
2018-03-31T21:34:20.570Z,4.00
2018-03-31T21:36:47.564Z,4.00
2018-03-31T21:39:14.573Z,4.00
2018-03-31T21:41:42.321Z,4.00
2018-03-31T21:44:10.081Z,4.10
2018-03-31T21:46:37.084Z,4.10
2018-03-31T21:49:04.077Z,4.20
2018-03-31T21:51:31.848Z,4.40
2018-03-31T21:53:59.625Z,4.60
2018-03-31T21:56:26.630Z,4.50
2018-03-31T21:58:53.618Z,4.60
2018-03-31T22:01:21.393Z,4.50
2018-03-31T22:03:48.384Z,4.50
2018-03-31T22:06:15.369Z,4.60
2018-03-31T22:08:43.229Z,4.60
2018-03-31T22:11:10.976Z,4.60
2018-03-31T22:13:43.785Z,4.50
2018-03-31T22:16:11.534Z,4.60
2018-03-31T22:18:39.309Z,4.70
2018-03-31T22:21:07.077Z,4.70
2018-03-31T22:23:34.830Z,4.60
2018-03-31T22:26:02.585Z,4.60
2018-03-31T22:28:29.647Z,4.60
2018-03-31T22:30:57.446Z,4.60
2018-03-31T22:33:24.434Z,4.60
2018-03-31T22:35:52.321Z,4.60
2018-03-31T22:38:20.533Z,4.60
2018-03-31T22:40:47.571Z,4.50
2018-03-31T22:43:14.578Z,4.60
2018-03-31T22:45:41.561Z,4.60
2018-03-31T22:48:08.545Z,4.60
2018-03-31T22:50:35.598Z,4.60
2018-03-31T22:53:02.549Z,4.60
2018-03-31T22:55:30.302Z,4.60
2018-03-31T22:57:57.349Z,4.60
2018-03-31T23:00:24.332Z,4.60
2018-03-31T23:02:52.081Z,4.60
2018-03-31T23:05:19.137Z,4.60
2018-03-31T23:07:46.885Z,4.60
2018-03-31T23:10:13.946Z,4.60
2018-03-31T23:12:41.721Z,4.60
2018-03-31T23:15:09.469Z,4.60
2018-03-31T23:17:37.221Z,4.60
2018-03-31T23:20:04.534Z,4.60
2018-03-31T23:22:31.520Z,4.50
2018-03-31T23:24:58.581Z,4.50
2018-03-31T23:27:26.599Z,4.30
2018-03-31T23:29:53.581Z,4.30
2018-03-31T23:32:20.565Z,4.20
2018-03-31T23:34:47.590Z,4.30
2018-03-31T23:37:15.347Z,4.30
2018-03-31T23:39:42.401Z,4.30
2018-03-31T23:42:10.178Z,4.20
2018-03-31T23:44:37.925Z,4.20
2018-03-31T23:47:05.673Z,4.20
2018-03-31T23:49:32.741Z,4.20
2018-03-31T23:52:00.488Z,4.20
2018-03-31T23:54:27.549Z,4.20
2018-03-31T23:56:55.413Z,4.20
2018-03-31T23:59:23.186Z,4.20
